Mc Laughlin, South Dakota
Current Conditions -  °F | °C
As of 5:52 PM on Wednesday 22 Oct 2014 (Local Time) from KMBG Reporting Station
Clear Clear  
Wind Chill: 59°   Ceiling: Unl
Heat Index: 59°   Visibility: 10mi
Dew Point: 38°   Wind: 8mph
Humidity: 46%   Direction: 270°W
Pressure: 29.89"   Gusts: NA
Location:  45.6923°N, 100.994°W
Report Text: KMBG 222352Z AUTO 27007KT 10SM CLR 15/03 A2989 RMK AO2 SLP122 T01500033 10194 20139 53004
Loading
Personal Weather Stations






























Interactive Weather Map
Tropical Storm Tracking
New forecast layout! Learn more

10-Day Weather Forecast

Advertisements
Track Severe Weather on mobile